sensor_id;sensor_type;location;lat;lon;timestamp;pressure;altitude;pressure_sealevel;temperature;humidity
33286;BME280;19656;50.096;20.014;2023-06-14T00:00:49;98931.45;;;14.61;68.29
33286;BME280;19656;50.096;20.014;2023-06-14T00:06:16;98928.77;;;14.61;68.48
33286;BME280;19656;50.096;20.014;2023-06-14T00:11:21;98928.39;;;14.66;68.56
33286;BME280;19656;50.096;20.014;2023-06-14T00:16:24;98928.48;;;14.69;68.86
33286;BME280;19656;50.096;20.014;2023-06-14T00:21:27;98927.51;;;14.68;69.15
33286;BME280;19656;50.096;20.014;2023-06-14T00:26:33;98930.67;;;14.66;69.57
33286;BME280;19656;50.096;20.014;2023-06-14T00:31:36;98921.84;;;14.63;69.88
33286;BME280;19656;50.096;20.014;2023-06-14T00:36:39;98913.21;;;14.61;70.20
33286;BME280;19656;50.096;20.014;2023-06-14T00:41:43;98915.52;;;14.59;70.49
33286;BME280;19656;50.096;20.014;2023-06-14T00:46:47;98916.67;;;14.63;70.63
33286;BME280;19656;50.096;20.014;2023-06-14T00:51:51;98910.48;;;14.69;70.79
33286;BME280;19656;50.096;20.014;2023-06-14T00:56:55;98903.01;;;14.75;70.74
33286;BME280;19656;50.096;20.014;2023-06-14T01:01:58;98899.39;;;14.76;70.93
33286;BME280;19656;50.096;20.014;2023-06-14T01:07:18;98897.40;;;14.76;70.94
33286;BME280;19656;50.096;20.014;2023-06-14T01:12:31;98894.82;;;14.75;70.93
33286;BME280;19656;50.096;20.014;2023-06-14T01:17:36;98895.17;;;14.70;71.06
33286;BME280;19656;50.096;20.014;2023-06-14T01:22:51;98896.77;;;14.66;71.23
33286;BME280;19656;50.096;20.014;2023-06-14T01:27:58;98895.29;;;14.66;71.29
33286;BME280;19656;50.096;20.014;2023-06-14T01:33:04;98889.45;;;14.70;71.36
33286;BME280;19656;50.096;20.014;2023-06-14T01:38:08;98880.48;;;14.75;71.36
33286;BME280;19656;50.096;20.014;2023-06-14T01:43:13;98875.70;;;14.77;71.59
33286;BME280;19656;50.096;20.014;2023-06-14T01:48:17;98867.85;;;14.77;71.53
33286;BME280;19656;50.096;20.014;2023-06-14T02:50:46;98865.11;;;14.62;72.74
33286;BME280;19656;50.096;20.014;2023-06-14T02:55:52;98862.56;;;14.65;72.74
33286;BME280;19656;50.096;20.014;2023-06-14T03:00:55;98863.83;;;14.72;72.79
33286;BME280;19656;50.096;20.014;2023-06-14T03:05:59;98865.48;;;14.75;73.01
33286;BME280;19656;50.096;20.014;2023-06-14T03:11:08;98863.73;;;14.79;73.07
33286;BME280;19656;50.096;20.014;2023-06-14T03:16:12;98865.30;;;14.79;72.91
33286;BME280;19656;50.096;20.014;2023-06-14T03:21:16;98867.34;;;14.77;73.02
33286;BME280;19656;50.096;20.014;2023-06-14T03:26:20;98871.36;;;14.76;73.10
33286;BME280;19656;50.096;20.014;2023-06-14T03:31:25;98868.29;;;14.76;73.23
33286;BME280;19656;50.096;20.014;2023-06-14T03:36:29;98867.93;;;14.82;73.36
33286;BME280;19656;50.096;20.014;2023-06-14T03:41:33;98863.55;;;14.90;73.64
33286;BME280;19656;50.096;20.014;2023-06-14T03:46:36;98868.02;;;14.95;73.73
33286;BME280;19656;50.096;20.014;2023-06-14T03:51:40;98871.58;;;14.97;73.80
33286;BME280;19656;50.096;20.014;2023-06-14T03:56:44;98872.12;;;14.97;73.90
33286;BME280;19656;50.096;20.014;2023-06-14T04:01:49;98872.40;;;14.97;74.01
33286;BME280;19656;50.096;20.014;2023-06-14T04:06:53;98878.66;;;15.00;74.24
33286;BME280;19656;50.096;20.014;2023-06-14T04:11:56;98881.77;;;15.05;74.19
33286;BME280;19656;50.096;20.014;2023-06-14T04:17:00;98880.51;;;15.11;74.16
33286;BME280;19656;50.096;20.014;2023-06-14T04:22:04;98878.55;;;15.16;74.30
33286;BME280;19656;50.096;20.014;2023-06-14T04:27:10;98882.80;;;15.19;74.25
33286;BME280;19656;50.096;20.014;2023-06-14T04:32:14;98885.85;;;15.20;74.22
33286;BME280;19656;50.096;20.014;2023-06-14T04:37:17;98883.50;;;15.19;74.43
33286;BME280;19656;50.096;20.014;2023-06-14T04:42:22;98889.80;;;15.18;74.64
33286;BME280;19656;50.096;20.014;2023-06-14T04:47:28;98887.45;;;15.25;74.79
33286;BME280;19656;50.096;20.014;2023-06-14T04:52:33;98884.99;;;15.33;74.77
33286;BME280;19656;50.096;20.014;2023-06-14T04:57:40;98891.85;;;15.38;74.62
33286;BME280;19656;50.096;20.014;2023-06-14T05:02:45;98888.23;;;15.41;74.60
33286;BME280;19656;50.096;20.014;2023-06-14T05:07:51;98883.85;;;15.44;74.72
33286;BME280;19656;50.096;20.014;2023-06-14T05:12:54;98890.39;;;15.52;74.78
33286;BME280;19656;50.096;20.014;2023-06-14T05:17:57;98890.96;;;15.61;74.57
33286;BME280;19656;50.096;20.014;2023-06-14T05:23:01;98892.39;;;15.69;74.07
33286;BME280;19656;50.096;20.014;2023-06-14T05:28:11;98891.19;;;15.72;73.75
33286;BME280;19656;50.096;20.014;2023-06-14T05:33:14;98891.95;;;15.71;73.80
33286;BME280;19656;50.096;20.014;2023-06-14T05:38:17;98894.02;;;15.70;73.95
33286;BME280;19656;50.096;20.014;2023-06-14T05:43:21;98904.22;;;15.70;74.12
33286;BME280;19656;50.096;20.014;2023-06-14T05:48:24;98904.85;;;15.90;74.07
33286;BME280;19656;50.096;20.014;2023-06-14T05:53:27;98907.98;;;16.14;72.94
33286;BME280;19656;50.096;20.014;2023-06-14T05:58:30;98910.31;;;16.03;72.36
33286;BME280;19656;50.096;20.014;2023-06-14T06:03:34;98914.74;;;15.94;72.33
33286;BME280;19656;50.096;20.014;2023-06-14T06:08:37;98915.29;;;15.87;72.40
33286;BME280;19656;50.096;20.014;2023-06-14T06:13:41;98919.38;;;15.77;72.71
33286;BME280;19656;50.096;20.014;2023-06-14T06:18:44;98919.40;;;15.72;73.12
33286;BME280;19656;50.096;20.014;2023-06-14T06:23:47;98924.41;;;15.74;73.37
33286;BME280;19656;50.096;20.014;2023-06-14T06:28:50;98925.42;;;15.81;73.43
33286;BME280;19656;50.096;20.014;2023-06-14T06:33:54;98923.67;;;15.85;73.45
33286;BME280;19656;50.096;20.014;2023-06-14T06:38:58;98926.73;;;15.90;73.37
33286;BME280;19656;50.096;20.014;2023-06-14T06:44:01;98935.90;;;16.03;73.68
33286;BME280;19656;50.096;20.014;2023-06-14T06:49:04;98946.94;;;16.27;72.70
33286;BME280;19656;50.096;20.014;2023-06-14T06:54:10;98950.43;;;16.09;72.48
33286;BME280;19656;50.096;20.014;2023-06-14T06:59:14;98958.52;;;15.96;72.58
33286;BME280;19656;50.096;20.014;2023-06-14T07:04:19;98959.24;;;15.88;72.85
33286;BME280;19656;50.096;20.014;2023-06-14T07:09:23;98960.17;;;15.83;73.15
33286;BME280;19656;50.096;20.014;2023-06-14T07:14:27;98962.70;;;15.83;73.53
33286;BME280;19656;50.096;20.014;2023-06-14T07:19:30;98967.02;;;15.80;73.60
33286;BME280;19656;50.096;20.014;2023-06-14T07:24:34;98973.77;;;15.75;73.67
33286;BME280;19656;50.096;20.014;2023-06-14T07:29:39;98981.91;;;15.74;73.91
33286;BME280;19656;50.096;20.014;2023-06-14T07:50:43;98988.45;;;15.83;74.10
33286;BME280;19656;50.096;20.014;2023-06-14T07:55:46;98991.15;;;15.85;74.13
33286;BME280;19656;50.096;20.014;2023-06-14T08:00:56;98993.63;;;15.81;74.07
33286;BME280;19656;50.096;20.014;2023-06-14T08:05:59;98993.39;;;15.86;74.00
33286;BME280;19656;50.096;20.014;2023-06-14T08:11:03;98992.71;;;15.88;73.91
33286;BME280;19656;50.096;20.014;2023-06-14T08:16:07;98988.42;;;15.83;74.01
33286;BME280;19656;50.096;20.014;2023-06-14T08:21:11;98985.52;;;15.80;74.09
33286;BME280;19656;50.096;20.014;2023-06-14T08:26:14;98988.80;;;15.77;74.20
33286;BME280;19656;50.096;20.014;2023-06-14T08:31:18;98987.98;;;15.74;74.44
33286;BME280;19656;50.096;20.014;2023-06-14T08:36:21;98985.80;;;15.76;74.88
33286;BME280;19656;50.096;20.014;2023-06-14T08:41:28;98993.95;;;15.86;75.22
33286;BME280;19656;50.096;20.014;2023-06-14T08:46:32;98998.40;;;15.88;74.95
33286;BME280;19656;50.096;20.014;2023-06-14T08:51:46;99002.67;;;15.84;74.87
33286;BME280;19656;50.096;20.014;2023-06-14T08:56:54;99004.91;;;15.79;75.03
33286;BME280;19656;50.096;20.014;2023-06-14T09:02:00;99012.84;;;15.76;75.14
33286;BME280;19656;50.096;20.014;2023-06-14T09:07:17;99017.50;;;15.87;75.04
33286;BME280;19656;50.096;20.014;2023-06-14T09:50:46;99033.85;;;16.00;75.22
33286;BME280;19656;50.096;20.014;2023-06-14T09:55:54;99025.52;;;16.00;75.26
33286;BME280;19656;50.096;20.014;2023-06-14T10:00:59;99026.02;;;16.04;75.59
33286;BME280;19656;50.096;20.014;2023-06-14T10:06:03;99025.44;;;16.11;75.63
33286;BME280;19656;50.096;20.014;2023-06-14T10:11:12;99026.73;;;16.19;75.29
33286;BME280;19656;50.096;20.014;2023-06-14T10:16:20;99028.24;;;16.18;75.42
33286;BME280;19656;50.096;20.014;2023-06-14T10:21:33;99025.02;;;16.18;75.29
33286;BME280;19656;50.096;20.014;2023-06-14T10:27:13;99025.55;;;16.22;75.22
33286;BME280;19656;50.096;20.014;2023-06-14T10:32:17;99028.64;;;16.24;75.54
33286;BME280;19656;50.096;20.014;2023-06-14T10:37:22;99025.11;;;16.32;75.85
33286;BME280;19656;50.096;20.014;2023-06-14T10:42:31;99020.20;;;16.47;75.58
33286;BME280;19656;50.096;20.014;2023-06-14T10:50:43;99016.98;;;16.59;75.06
33286;BME280;19656;50.096;20.014;2023-06-14T10:55:47;99019.86;;;16.59;74.89
33286;BME280;19656;50.096;20.014;2023-06-14T11:51:02;98992.53;;;17.31;73.99
33286;BME280;19656;50.096;20.014;2023-06-14T11:56:06;98988.89;;;17.34;74.29
33286;BME280;19656;50.096;20.014;2023-06-14T12:01:14;98979.73;;;17.55;74.38
33286;BME280;19656;50.096;20.014;2023-06-14T12:06:26;98973.98;;;17.87;74.01
33286;BME280;19656;50.096;20.014;2023-06-14T12:11:34;98970.67;;;18.03;72.79
33286;BME280;19656;50.096;20.014;2023-06-14T12:16:39;98974.52;;;18.00;72.05
33286;BME280;19656;50.096;20.014;2023-06-14T12:21:54;98978.84;;;17.96;71.79
33286;BME280;19656;50.096;20.014;2023-06-14T12:26:58;98977.77;;;17.92;71.39
33286;BME280;19656;50.096;20.014;2023-06-14T12:32:06;98977.70;;;18.02;71.87
33286;BME280;19656;50.096;20.014;2023-06-14T12:37:10;98977.66;;;18.63;72.69
33286;BME280;19656;50.096;20.014;2023-06-14T12:42:13;98971.98;;;19.27;70.93
33286;BME280;19656;50.096;20.014;2023-06-14T12:47:17;98970.49;;;19.87;68.32
33286;BME280;19656;50.096;20.014;2023-06-14T12:52:21;98959.63;;;20.30;66.65
33286;BME280;19656;50.096;20.014;2023-06-14T12:57:24;98951.50;;;20.77;65.28
33286;BME280;19656;50.096;20.014;2023-06-14T13:02:27;98946.50;;;21.22;63.94
33286;BME280;19656;50.096;20.014;2023-06-14T13:07:32;98936.64;;;21.53;62.36
33286;BME280;19656;50.096;20.014;2023-06-14T13:12:35;98930.58;;;21.87;61.55
33286;BME280;19656;50.096;20.014;2023-06-14T13:17:38;98924.64;;;22.14;60.48
33286;BME280;19656;50.096;20.014;2023-06-14T13:22:41;98923.77;;;22.38;57.92
33286;BME280;19656;50.096;20.014;2023-06-14T13:27:44;98924.86;;;22.56;56.85
33286;BME280;19656;50.096;20.014;2023-06-14T13:32:48;98925.64;;;22.76;56.08
33286;BME280;19656;50.096;20.014;2023-06-14T13:37:52;98935.16;;;22.46;55.66
33286;BME280;19656;50.096;20.014;2023-06-14T13:42:56;98936.13;;;21.95;55.76
33286;BME280;19656;50.096;20.014;2023-06-14T13:47:59;98941.30;;;21.48;56.36
33286;BME280;19656;50.096;20.014;2023-06-14T13:53:02;98938.64;;;21.66;56.86
33286;BME280;19656;50.096;20.014;2023-06-14T13:58:06;98933.98;;;21.77;56.39
33286;BME280;19656;50.096;20.014;2023-06-14T14:03:09;98933.19;;;21.92;55.96
33286;BME280;19656;50.096;20.014;2023-06-14T14:08:13;98936.96;;;22.09;55.51
33286;BME280;19656;50.096;20.014;2023-06-14T14:13:16;98934.12;;;22.33;54.90
33286;BME280;19656;50.096;20.014;2023-06-14T14:18:19;98938.64;;;22.36;54.47
33286;BME280;19656;50.096;20.014;2023-06-14T14:23:26;98940.14;;;22.39;54.04
33286;BME280;19656;50.096;20.014;2023-06-14T14:28:30;98940.98;;;22.18;53.77
33286;BME280;19656;50.096;20.014;2023-06-14T14:33:34;98934.77;;;22.06;53.94
33286;BME280;19656;50.096;20.014;2023-06-14T14:38:38;98941.42;;;21.87;54.16
33286;BME280;19656;50.096;20.014;2023-06-14T14:43:41;98943.73;;;21.52;54.23
33286;BME280;19656;50.096;20.014;2023-06-14T14:48:44;98942.15;;;21.17;55.09
33286;BME280;19656;50.096;20.014;2023-06-14T14:53:48;98942.05;;;20.84;55.89
33286;BME280;19656;50.096;20.014;2023-06-14T14:58:52;98941.27;;;20.61;56.41
33286;BME280;19656;50.096;20.014;2023-06-14T15:03:55;98936.57;;;20.47;57.01
33286;BME280;19656;50.096;20.014;2023-06-14T15:09:02;98929.95;;;20.35;57.07
33286;BME280;19656;50.096;20.014;2023-06-14T15:14:05;98929.92;;;20.17;57.47
33286;BME280;19656;50.096;20.014;2023-06-14T15:19:09;98930.98;;;20.04;57.89
33286;BME280;19656;50.096;20.014;2023-06-14T15:24:12;98932.22;;;19.92;58.60
33286;BME280;19656;50.096;20.014;2023-06-14T15:29:16;98929.27;;;19.82;59.37
33286;BME280;19656;50.096;20.014;2023-06-14T15:50:46;98917.76;;;19.99;59.51
33286;BME280;19656;50.096;20.014;2023-06-14T15:55:49;98929.85;;;19.86;59.63
33286;BME280;19656;50.096;20.014;2023-06-14T16:00:53;98933.60;;;19.90;60.18
33286;BME280;19656;50.096;20.014;2023-06-14T16:05:56;98930.66;;;19.95;59.35
33286;BME280;19656;50.096;20.014;2023-06-14T16:10:59;98931.98;;;19.87;58.91
33286;BME280;19656;50.096;20.014;2023-06-14T16:16:03;98934.23;;;19.76;58.99
33286;BME280;19656;50.096;20.014;2023-06-14T16:21:06;98935.48;;;19.60;59.28
33286;BME280;19656;50.096;20.014;2023-06-14T16:26:12;98936.17;;;19.42;59.76
33286;BME280;19656;50.096;20.014;2023-06-14T16:31:16;98931.33;;;19.32;60.20
33286;BME280;19656;50.096;20.014;2023-06-14T16:36:26;98932.83;;;19.20;60.44
33286;BME280;19656;50.096;20.014;2023-06-14T16:41:40;98928.52;;;19.08;60.99
33286;BME280;19656;50.096;20.014;2023-06-14T16:46:43;98931.27;;;19.04;61.93
33286;BME280;19656;50.096;20.014;2023-06-14T16:51:47;98938.75;;;19.14;61.67
33286;BME280;19656;50.096;20.014;2023-06-14T16:56:50;98941.88;;;19.21;62.99
33286;BME280;19656;50.096;20.014;2023-06-14T17:02:00;98946.65;;;19.32;63.51
33286;BME280;19656;50.096;20.014;2023-06-14T17:07:07;98956.72;;;19.34;61.52
33286;BME280;19656;50.096;20.014;2023-06-14T17:12:11;98963.48;;;19.21;60.74
33286;BME280;19656;50.096;20.014;2023-06-14T17:17:14;98972.35;;;19.10;61.10
33286;BME280;19656;50.096;20.014;2023-06-14T17:22:18;98970.29;;;19.04;61.43
33286;BME280;19656;50.096;20.014;2023-06-14T17:27:22;98974.11;;;18.95;61.27
33286;BME280;19656;50.096;20.014;2023-06-14T17:32:25;98970.95;;;18.85;61.08
33286;BME280;19656;50.096;20.014;2023-06-14T17:37:28;98970.92;;;18.72;61.34
33286;BME280;19656;50.096;20.014;2023-06-14T17:42:31;98977.55;;;18.61;61.73
33286;BME280;19656;50.096;20.014;2023-06-14T17:53:12;98982.11;;;18.39;62.79
33286;BME280;19656;50.096;20.014;2023-06-14T17:58:16;98977.86;;;18.28;63.38
33286;BME280;19656;50.096;20.014;2023-06-14T18:03:19;98979.61;;;18.18;63.84
33286;BME280;19656;50.096;20.014;2023-06-14T18:08:23;98984.38;;;18.10;64.05
33286;BME280;19656;50.096;20.014;2023-06-14T18:13:26;98985.35;;;18.03;63.91
33286;BME280;19656;50.096;20.014;2023-06-14T18:18:30;98991.13;;;18.03;64.16
33286;BME280;19656;50.096;20.014;2023-06-14T18:23:33;98998.17;;;18.03;64.35
33286;BME280;19656;50.096;20.014;2023-06-14T18:28:37;98994.91;;;18.01;64.76
33286;BME280;19656;50.096;20.014;2023-06-14T18:33:40;98996.45;;;18.02;64.62
33286;BME280;19656;50.096;20.014;2023-06-14T18:38:44;99000.58;;;17.98;64.83
33286;BME280;19656;50.096;20.014;2023-06-14T18:43:47;98998.44;;;17.90;64.70
33286;BME280;19656;50.096;20.014;2023-06-14T18:48:50;99007.31;;;17.82;65.14
33286;BME280;19656;50.096;20.014;2023-06-14T18:53:54;99011.19;;;17.70;65.49
33286;BME280;19656;50.096;20.014;2023-06-14T18:58:58;99013.78;;;17.75;66.15
33286;BME280;19656;50.096;20.014;2023-06-14T19:04:02;99023.89;;;17.77;65.63
33286;BME280;19656;50.096;20.014;2023-06-14T19:09:05;99028.58;;;17.72;65.45
33286;BME280;19656;50.096;20.014;2023-06-14T19:14:08;99027.81;;;17.63;65.59
33286;BME280;19656;50.096;20.014;2023-06-14T19:19:12;99034.84;;;17.55;65.69
33286;BME280;19656;50.096;20.014;2023-06-14T19:24:15;99035.98;;;17.44;66.04
33286;BME280;19656;50.096;20.014;2023-06-14T19:29:18;99041.16;;;17.37;66.50
33286;BME280;19656;50.096;20.014;2023-06-14T19:34:22;99041.84;;;17.25;66.55
33286;BME280;19656;50.096;20.014;2023-06-14T19:39:26;99046.35;;;17.15;66.86
33286;BME280;19656;50.096;20.014;2023-06-14T19:44:29;99043.84;;;17.11;67.02
33286;BME280;19656;50.096;20.014;2023-06-14T19:49:32;99049.28;;;17.12;67.43
33286;BME280;19656;50.096;20.014;2023-06-14T19:54:35;99049.29;;;17.14;67.64
33286;BME280;19656;50.096;20.014;2023-06-14T19:59:39;99049.87;;;17.15;67.58
33286;BME280;19656;50.096;20.014;2023-06-14T20:04:42;99051.67;;;17.09;67.80
33286;BME280;19656;50.096;20.014;2023-06-14T20:09:45;99059.80;;;17.01;67.96
33286;BME280;19656;50.096;20.014;2023-06-14T20:14:49;99063.70;;;16.89;68.19
33286;BME280;19656;50.096;20.014;2023-06-14T20:19:53;99065.70;;;16.87;68.50
33286;BME280;19656;50.096;20.014;2023-06-14T20:24:56;99066.54;;;16.87;69.11
33286;BME280;19656;50.096;20.014;2023-06-14T20:29:59;99069.84;;;16.88;68.81
33286;BME280;19656;50.096;20.014;2023-06-14T20:35:04;99074.42;;;16.81;68.81
33286;BME280;19656;50.096;20.014;2023-06-14T20:40:18;99074.28;;;16.76;69.14
33286;BME280;19656;50.096;20.014;2023-06-14T20:45:21;99072.44;;;16.70;69.14
33286;BME280;19656;50.096;20.014;2023-06-14T20:50:27;99070.00;;;16.65;69.29
33286;BME280;19656;50.096;20.014;2023-06-14T20:55:43;99073.75;;;16.53;69.62
33286;BME280;19656;50.096;20.014;2023-06-14T21:00:46;99073.01;;;16.41;69.93
33286;BME280;19656;50.096;20.014;2023-06-14T21:05:50;99069.27;;;16.32;70.19
33286;BME280;19656;50.096;20.014;2023-06-14T21:10:53;99066.61;;;16.26;70.38
33286;BME280;19656;50.096;20.014;2023-06-14T21:15:59;99062.52;;;16.25;70.54
33286;BME280;19656;50.096;20.014;2023-06-14T21:21:03;99062.02;;;16.27;70.56
33286;BME280;19656;50.096;20.014;2023-06-14T21:26:06;99065.91;;;16.28;70.73
33286;BME280;19656;50.096;20.014;2023-06-14T21:31:10;99066.35;;;16.24;70.68
33286;BME280;19656;50.096;20.014;2023-06-14T21:36:15;99066.55;;;16.18;70.75
33286;BME280;19656;50.096;20.014;2023-06-14T21:41:20;99060.23;;;16.10;71.01
33286;BME280;19656;50.096;20.014;2023-06-14T21:52:37;99055.34;;;16.11;71.33
33286;BME280;19656;50.096;20.014;2023-06-14T21:57:45;99057.40;;;16.16;71.02
33286;BME280;19656;50.096;20.014;2023-06-14T22:02:48;99057.19;;;16.19;70.92
